Time;durP1;ratioP1;P1;durP2;ratioP2;P2;SDS_P1;SDS_P2;PMS_P1;PMS_P2;Temp;Humidity;BMP_temperature;BMP_pressure;BME280_temperature;BME280_humidity;BME280_pressure;Samples;Min_cycle;Max_cycle;Signal;HPM_P1;HPM_P2
2022/03/19 00:00:53;;;;;;;;;6.50;4.00;;;;;9.05;39.80;102722.47;5036230;28;45438;-75
2022/03/19 00:03:21;;;;;;;;;7.25;6.00;;;;;9.04;39.96;102709.25;5035982;28;45454;-76
2022/03/19 00:05:47;;;;;;;;;6.00;5.00;;;;;9.00;39.80;102713.59;5055910;28;46127;-75
2022/03/19 00:08:13;;;;;;;;;5.00;4.00;;;;;9.01;40.08;102712.72;5055937;28;45388;-77
2022/03/19 00:10:38;;;;;;;;;3.00;3.00;;;;;8.98;40.01;102717.94;5056761;28;45383;-75
2022/03/19 00:13:04;;;;;;;;;5.25;3.00;;;;;8.98;40.01;102717.94;5042487;28;45632;-75
2022/03/19 00:15:30;;;;;;;;;6.00;6.00;;;;;8.92;39.35;102709.88;5036944;28;45424;-75
2022/03/19 00:17:57;;;;;;;;;9.00;6.00;;;;;8.92;39.33;102709.88;5050827;28;45490;-74
2022/03/19 00:20:23;;;;;;;;;3.75;3.75;;;;;8.91;39.72;102710.75;5056694;28;45386;-74
2022/03/19 00:22:48;;;;;;;;;5.75;4.25;;;;;8.85;39.83;102702.69;5044826;28;45641;-74
2022/03/19 00:25:13;;;;;;;;;4.00;4.00;;;;;8.85;39.88;102714.16;5035791;28;46203;-74
2022/03/19 00:27:42;;;;;;;;;6.25;4.75;;;;;8.84;40.14;102712.38;5036971;28;45393;-75
2022/03/19 00:30:09;;;;;;;;;5.00;5.00;;;;;8.81;39.84;102706.16;5035403;28;45408;-75
2022/03/19 00:32:35;;;;;;;;;4.50;4.50;;;;;8.80;40.25;102707.88;5040971;28;45446;-74
2022/03/19 00:35:01;;;;;;;;;5.00;5.00;;;;;8.75;39.97;102703.41;5035981;28;45497;-75
2022/03/19 00:37:26;;;;;;;;;5.50;3.75;;;;;8.78;40.20;102700.81;5039074;28;46741;-74
2022/03/19 00:39:51;;;;;;;;;4.00;4.00;;;;;8.74;40.30;102701.59;5055902;28;45444;-75
2022/03/19 00:42:17;;;;;;;;;3.25;2.00;;;;;8.75;39.79;102709.53;5048553;28;45527;-75
2022/03/19 00:44:44;;;;;;;;;6.00;3.25;;;;;8.74;40.36;102706.88;5035789;28;45521;-75
2022/03/19 00:47:10;;;;;;;;;1.00;1.00;;;;;8.71;40.01;102690.16;5035757;28;45533;-75
2022/03/19 00:49:36;;;;;;;;;4.50;4.50;;;;;8.64;40.31;102700.50;5036350;28;45418;-75
2022/03/19 00:52:01;;;;;;;;;6.50;4.75;;;;;8.63;40.12;102698.75;5033903;28;45506;-74
2022/03/19 00:54:27;;;;;;;;;4.00;4.00;;;;;8.63;39.82;102698.75;5035059;28;45432;-74
2022/03/19 00:56:52;;;;;;;;;3.00;2.00;;;;;8.59;40.41;102687.22;5036270;28;45391;-74
2022/03/19 00:59:17;;;;;;;;;4.00;4.00;;;;;8.57;40.22;102691.56;5035140;28;45883;-74
2022/03/19 01:01:43;;;;;;;;;5.00;2.50;;;;;8.59;40.52;102695.13;5050202;28;45337;-75
2022/03/19 01:04:08;;;;;;;;;6.00;4.00;;;;;8.58;40.86;102688.09;5037374;28;48172;-74
2022/03/19 01:06:33;;;;;;;;;6.50;6.50;;;;;8.56;41.11;102691.53;5045144;28;45368;-75
2022/03/19 01:08:59;;;;;;;;;5.00;4.00;;;;;8.54;40.24;102694.16;5018445;28;45414;-75
2022/03/19 01:11:24;;;;;;;;;4.50;2.25;;;;;8.51;40.56;102687.06;5034952;28;45517;-74
2022/03/19 01:13:50;;;;;;;;;3.00;3.00;;;;;8.45;40.92;102678.13;5035220;28;45506;-73
2022/03/19 01:16:18;;;;;;;;;6.50;5.25;;;;;8.47;40.10;102686.94;5035267;28;45348;-75
2022/03/19 01:18:44;;;;;;;;;4.00;4.00;;;;;8.38;40.84;102665.63;5035398;28;45535;-75
2022/03/19 01:21:09;;;;;;;;;4.00;4.00;;;;;8.42;40.68;102680.66;5042844;28;45562;-74
2022/03/19 01:23:34;;;;;;;;;2.25;1.00;;;;;8.41;40.80;102673.59;5046133;28;45508;-74
2022/03/19 01:26:00;;;;;;;;;4.50;2.75;;;;;8.40;41.10;102677.13;5016928;28;45388;-75
2022/03/19 01:28:26;;;;;;;;;4.00;4.00;;;;;8.36;40.78;102669.09;5034791;28;45396;-74
2022/03/19 01:30:51;;;;;;;;;3.00;3.00;;;;;8.33;41.02;102673.44;5033986;28;45478;-75
2022/03/19 01:33:16;;;;;;;;;7.00;3.25;;;;;8.30;40.82;102674.25;5034388;28;46047;-74
2022/03/19 01:35:42;;;;;;;;;3.25;2.75;;;;;8.28;41.12;102673.34;5035112;28;45423;-75
2022/03/19 01:38:07;;;;;;;;;4.75;4.50;;;;;8.24;40.82;102674.09;5035437;28;45490;-74
2022/03/19 01:40:32;;;;;;;;;5.25;5.00;;;;;8.26;41.05;102675.06;5035188;28;45439;-74
2022/03/19 01:43:00;;;;;;;;;4.25;3.50;;;;;8.23;40.95;102672.34;5034525;28;46165;-74
2022/03/19 01:45:25;;;;;;;;;4.50;4.50;;;;;8.22;40.80;102654.75;5034865;28;45463;-75
2022/03/19 01:47:52;;;;;;;;;7.00;5.00;;;;;8.19;40.90;102665.22;5035556;28;45384;-74
2022/03/19 01:50:19;;;;;;;;;3.50;2.00;;;;;8.16;41.21;102667.78;5041056;28;45490;-74
2022/03/19 01:52:45;;;;;;;;;4.25;4.25;;;;;8.12;41.00;102663.28;5039237;28;45436;-74
2022/03/19 01:55:12;;;;;;;;;1.00;1.00;;;;;8.10;41.30;102657.09;5034565;28;45395;-74
2022/03/19 01:57:41;;;;;;;;;1.00;1.00;;;;;8.09;42.07;102668.50;5034878;28;45378;-74
2022/03/19 02:00:10;;;;;;;;;4.00;4.00;;;;;8.09;41.70;102661.50;5034050;28;45530;-75
2022/03/19 02:02:36;;;;;;;;;4.75;4.75;;;;;8.07;40.83;102671.09;5034394;28;46292;-75
2022/03/19 02:05:03;;;;;;;;;4.00;4.00;;;;;7.98;41.69;102645.41;5034704;28;45518;-74
2022/03/19 02:07:30;;;;;;;;;6.00;3.75;;;;;7.97;41.36;102643.66;5035378;28;45512;-74
2022/03/19 02:10:00;;;;;;;;;4.00;4.00;;;;;8.00;42.14;102643.72;5037646;28;45756;-75
2022/03/19 02:12:26;;;;;;;;;5.75;4.75;;;;;7.98;42.19;102658.59;5034446;28;45473;-75
2022/03/19 02:14:52;;;;;;;;;5.50;5.00;;;;;7.96;41.45;102656.78;5019776;28;45737;-75
2022/03/19 02:17:18;;;;;;;;;4.50;4.25;;;;;7.93;41.73;102664.63;5033692;28;45593;-74
2022/03/19 02:19:49;;;;;;;;;7.00;4.50;;;;;7.93;42.54;102652.31;5015822;28;45382;-75
2022/03/19 02:22:18;;;;;;;;;2.50;2.50;;;;;7.91;41.64;102635.63;5034061;28;45522;-74
2022/03/19 02:27:29;;;;;;;;;4.50;4.50;;;;;7.84;42.74;102646.84;5033264;28;45348;-75
2022/03/19 02:29:56;;;;;;;;;5.00;5.00;;;;;7.81;42.34;102638.88;5033471;28;45273;-76
2022/03/19 02:32:21;;;;;;;;;5.50;4.50;;;;;7.78;42.00;102628.28;5032061;28;45988;-75
2022/03/19 02:34:47;;;;;;;;;8.50;5.00;;;;;7.79;43.14;102635.31;5033957;28;45471;-76
2022/03/19 02:37:12;;;;;;;;;5.25;2.00;;;;;7.76;43.43;102630.00;5039098;28;45673;-75
2022/03/19 02:39:37;;;;;;;;;4.50;4.50;;;;;7.75;43.12;102622.94;5033382;28;45534;-75
2022/03/19 02:42:05;;;;;;;;;4.00;4.00;;;;;7.71;43.33;102621.06;5034060;28;45450;-74
2022/03/19 02:44:31;;;;;;;;;5.25;5.00;;;;;7.68;43.26;102619.25;5032856;28;45458;-73
2022/03/19 02:46:59;;;;;;;;;5.75;5.00;;;;;7.67;42.49;102629.72;5015230;28;45564;-74
2022/03/19 02:49:25;;;;;;;;;6.50;5.25;;;;;7.62;43.95;102620.00;5033465;28;45522;-74
2022/03/19 02:51:52;;;;;;;;;5.25;5.25;;;;;7.60;44.47;102616.41;5033343;28;45970;-75
2022/03/19 02:54:21;;;;;;;;;6.50;5.75;;;;;7.57;44.20;102605.81;5033714;28;45579;-75
2022/03/19 02:56:47;;;;;;;;;12.50;8.25;;;;;7.49;43.69;102586.34;5033023;28;45466;-74
2022/03/19 02:59:18;;;;;;;;;9.75;8.00;;;;;7.56;44.57;102604.06;5036024;28;45545;-74
2022/03/19 03:01:52;;;;;;;;;8.75;5.25;;;;;7.54;43.94;102600.47;5032957;28;46447;-74
2022/03/19 03:04:18;;;;;;;;;9.00;6.00;;;;;7.53;43.61;102606.63;5035138;28;45466;-76
2022/03/19 03:06:45;;;;;;;;;9.00;9.00;;;;;7.45;44.35;102588.00;5047252;28;45550;-75
2022/03/19 03:09:12;;;;;;;;;9.50;8.25;;;;;7.46;44.37;102592.41;5057030;28;45462;-75
2022/03/19 03:11:38;;;;;;;;;3.00;2.00;;;;;7.44;44.14;102599.38;5055189;28;45456;-74
2022/03/19 03:14:04;;;;;;;;;12.25;9.25;;;;;7.40;45.11;102599.25;5056421;28;45383;-75
2022/03/19 03:16:30;;;;;;;;;8.00;8.00;;;;;7.40;44.47;102586.09;5047373;28;45405;-74
2022/03/19 03:19:06;;;;;;;;;11.50;7.00;;;;;7.41;44.95;102607.19;5036758;28;45429;-75
2022/03/19 03:21:33;;;;;;;;;12.00;11.00;;;;;7.33;44.26;102595.56;5036566;28;45508;-74
2022/03/19 03:23:59;;;;;;;;;9.00;7.50;;;;;7.31;45.02;102601.66;5036248;28;45411;-74
2022/03/19 03:26:25;;;;;;;;;5.50;5.00;;;;;7.29;45.01;102594.63;5018431;28;45397;-73
2022/03/19 03:28:51;;;;;;;;;8.75;8.75;;;;;7.34;44.43;102607.00;5035998;28;45563;-75
2022/03/19 03:31:17;;;;;;;;;11.00;8.75;;;;;7.31;45.23;102601.66;5018317;28;46718;-75
2022/03/19 03:33:42;;;;;;;;;9.75;9.75;;;;;7.29;45.40;102591.09;5036378;28;45436;-75
2022/03/19 03:36:08;;;;;;;;;15.00;12.25;;;;;7.24;45.98;102590.97;5036493;28;45509;-75
2022/03/19 03:38:33;;;;;;;;;12.50;12.25;;;;;7.26;46.08;102583.13;5035748;28;45650;-75
2022/03/19 03:40:58;;;;;;;;;14.75;11.00;;;;;7.25;46.33;102571.69;5054604;28;46189;-75
2022/03/19 03:43:24;;;;;;;;;14.00;11.00;;;;;7.21;45.82;102584.72;5056226;28;45433;-74
2022/03/19 03:45:50;;;;;;;;;16.00;12.25;;;;;7.22;46.20;102581.25;5053364;28;45315;-74
2022/03/19 03:48:16;;;;;;;;;13.50;11.00;;;;;7.14;46.11;102582.81;5036718;28;45328;-76
2022/03/19 03:50:41;;;;;;;;;12.75;10.50;;;;;7.14;46.70;102583.69;5036221;28;45544;-74
2022/03/19 03:53:07;;;;;;;;;11.25;11.25;;;;;7.14;46.84;102588.09;5016876;28;45777;-75
2022/03/19 03:55:34;;;;;;;;;8.75;8.00;;;;;7.13;46.23;102586.28;5036432;28;45547;-75
2022/03/19 03:58:01;;;;;;;;;14.00;14.00;;;;;7.11;46.39;102600.28;5035172;28;45551;-73
2022/03/19 04:00:27;;;;;;;;;15.75;13.00;;;;;7.02;47.46;102572.88;5036037;28;46252;-75
2022/03/19 04:02:53;;;;;;;;;14.50;12.25;;;;;7.05;47.35;102583.47;5035785;28;45515;-75
2022/03/19 04:05:19;;;;;;;;;18.50;13.50;;;;;7.03;46.80;102582.50;5036205;28;45446;-75
2022/03/19 04:07:45;;;;;;;;;14.00;14.00;;;;;7.02;46.49;102589.53;5050197;28;45673;-75
2022/03/19 04:10:10;;;;;;;;;12.25;9.50;;;;;7.02;47.68;102578.13;5055920;28;45387;-75
2022/03/19 04:12:36;;;;;;;;;13.75;11.00;;;;;7.01;47.06;102578.97;5056221;28;45443;-75
2022/03/19 04:15:03;;;;;;;;;18.00;12.50;;;;;6.99;46.94;102578.03;5054588;28;45482;-75
2022/03/19 04:17:29;;;;;;;;;12.75;10.25;;;;;6.99;47.18;102583.31;5040412;28;45635;-74
2022/03/19 04:19:54;;;;;;;;;12.25;9.00;;;;;6.98;47.32;102576.25;5034838;28;45479;-74
2022/03/19 04:22:19;;;;;;;;;5.75;5.75;;;;;6.96;47.81;102575.34;5035879;28;45460;-75
2022/03/19 04:24:44;;;;;;;;;19.25;16.00;;;;;6.94;47.82;102576.16;5035407;28;45469;-76
2022/03/19 04:27:10;;;;;;;;;18.00;13.50;;;;;6.91;47.46;102575.22;5035028;28;45408;-75
2022/03/19 04:29:36;;;;;;;;;12.50;10.50;;;;;6.89;47.76;102585.69;5034690;28;46548;-75
2022/03/19 04:32:02;;;;;;;;;15.75;14.00;;;;;6.86;48.36;102576.81;5035374;28;45550;-75
2022/03/19 04:34:27;;;;;;;;;14.75;12.25;;;;;6.84;48.08;102579.41;5037818;28;45589;-74
2022/03/19 04:36:53;;;;;;;;;15.50;15.50;;;;;6.81;48.29;102581.94;5034992;28;45349;-75
2022/03/19 04:39:18;;;;;;;;;14.75;14.00;;;;;6.79;48.57;102583.66;5035103;28;45424;-74
2022/03/19 04:41:44;;;;;;;;;15.25;12.25;;;;;6.78;48.75;102583.59;5035622;28;45373;-75
2022/03/19 04:44:09;;;;;;;;;15.50;11.25;;;;;6.76;48.20;102575.69;5034811;28;45483;-74
2022/03/19 04:46:36;;;;;;;;;15.75;14.75;;;;;6.74;48.61;102577.34;5035316;28;45440;-75
2022/03/19 04:49:02;;;;;;;;;18.25;13.75;;;;;6.72;49.63;102584.31;5033746;28;46207;-75
2022/03/19 04:51:32;;;;;;;;;23.75;18.50;;;;;6.74;49.03;102577.34;5034544;28;45562;-76
2022/03/19 04:53:58;;;;;;;;;8.75;6.00;;;;;6.72;50.32;102576.44;5034819;28;45547;-74
2022/03/19 04:56:25;;;;;;;;;15.75;12.50;;;;;6.70;49.30;102580.75;5034987;28;45409;-75
2022/03/19 04:58:52;;;;;;;;;20.75;16.00;;;;;6.68;49.53;102587.69;5047184;28;46181;-74
2022/03/19 05:01:18;;;;;;;;;21.75;16.00;;;;;6.66;49.16;102578.88;5055771;28;45556;-75
2022/03/19 05:03:44;;;;;;;;;13.50;12.50;;;;;6.61;49.78;102576.13;5038588;28;45696;-75
2022/03/19 05:06:10;;;;;;;;;25.50;17.50;;;;;6.60;50.02;102574.34;5035991;28;45466;-75
2022/03/19 05:08:35;;;;;;;;;26.25;23.25;;;;;6.55;50.68;102589.97;5016550;28;46518;-74
2022/03/19 05:11:12;;;;;;;;;19.00;16.00;;;;;6.54;50.95;102580.34;5034751;28;45363;-74
2022/03/19 05:13:43;;;;;;;;;22.50;20.25;;;;;6.50;50.72;102565.31;5034718;28;45440;-76
2022/03/19 05:16:08;;;;;;;;;18.75;18.00;;;;;6.50;51.32;102569.66;5035677;28;45459;-74
2022/03/19 05:18:34;;;;;;;;;22.75;21.25;;;;;6.49;51.61;102587.19;5054852;28;45507;-74
2022/03/19 05:20:59;;;;;;;;;25.00;16.50;;;;;6.47;51.83;102570.50;5054797;28;45426;-74
2022/03/19 05:23:25;;;;;;;;;19.50;15.75;;;;;6.46;52.09;102581.84;5027636;28;45431;-75
2022/03/19 05:25:52;;;;;;;;;26.50;21.00;;;;;6.46;51.68;102579.22;4996469;28;45379;-75
2022/03/19 05:28:17;;;;;;;;;23.25;20.50;;;;;6.43;51.86;102573.88;5032091;28;45403;-74
2022/03/19 05:30:43;;;;;;;;;25.00;22.00;;;;;6.42;52.01;102579.06;5040598;28;45491;-74
2022/03/19 05:33:08;;;;;;;;;25.00;22.50;;;;;6.37;52.17;102576.31;5042886;28;45407;-75
2022/03/19 05:35:34;;;;;;;;;32.75;24.50;;;;;6.34;52.04;102584.09;5034991;28;45423;-74
2022/03/19 05:38:00;;;;;;;;;22.75;19.00;;;;;6.35;53.10;102583.28;5033858;28;45521;-75
2022/03/19 05:40:27;;;;;;;;;26.00;23.25;;;;;6.33;52.79;102580.59;5033356;28;45554;-74
2022/03/19 05:42:52;;;;;;;;;28.50;24.50;;;;;6.33;53.51;102579.69;5033553;28;45525;-75
2022/03/19 05:45:20;;;;;;;;;23.50;23.50;;;;;6.30;53.25;102580.53;5034094;28;45608;-75
2022/03/19 05:47:45;;;;;;;;;28.50;23.50;;;;;6.30;53.27;102571.72;5034792;28;46138;-79
2022/03/19 05:50:11;;;;;;;;;24.25;22.75;;;;;6.30;53.09;102585.78;5034946;28;45562;-79
2022/03/19 05:52:37;;;;;;;;;28.75;23.75;;;;;6.29;53.28;102585.72;5036503;28;45568;-80
2022/03/19 05:55:03;;;;;;;;;36.00;23.75;;;;;6.29;54.12;102577.84;5035458;28;45615;-79
2022/03/19 05:57:28;;;;;;;;;29.50;28.75;;;;;6.25;53.37;102578.59;5034635;28;46065;-79
2022/03/19 05:59:54;;;;;;;;;32.25;27.75;;;;;6.28;54.09;102581.31;5034286;28;45489;-79
2022/03/19 06:02:19;;;;;;;;;31.75;22.00;;;;;6.26;54.33;102569.88;5034674;28;45339;-79
2022/03/19 06:04:44;;;;;;;;;29.25;25.50;;;;;6.28;54.63;102583.94;5035733;28;45439;-78
2022/03/19 06:07:10;;;;;;;;;27.50;24.75;;;;;6.30;54.78;102570.00;5054046;28;52432;-78
2022/03/19 06:09:35;;;;;;;;;34.50;32.50;;;;;6.32;54.47;102570.94;5054131;28;45437;-79
2022/03/19 06:12:01;;;;;;;;;27.75;27.00;;;;;6.43;53.63;102576.50;5051019;28;45521;-80
2022/03/19 06:14:26;;;;;;;;;32.25;28.75;;;;;6.70;53.90;102572.88;5054222;28;45556;-80
2022/03/19 06:16:51;;;;;;;;;30.00;29.25;;;;;6.91;53.37;102585.72;5054344;28;46305;-79
2022/03/19 06:19:18;;;;;;;;;40.25;32.50;;;;;7.18;52.56;102580.31;5055724;28;45726;-79
2022/03/19 06:21:44;;;;;;;;;35.00;23.75;;;;;7.46;52.28;102579.25;5056536;28;45523;-79
2022/03/19 06:24:12;;;;;;;;;35.50;32.50;;;;;7.77;50.81;102571.19;5036728;28;45627;-78
2022/03/19 06:26:38;;;;;;;;;44.00;33.75;;;;;8.04;51.16;102572.69;5052352;28;45489;-78
2022/03/19 06:29:04;;;;;;;;;33.50;29.50;;;;;8.18;50.34;102593.22;5054524;28;45446;-79
2022/03/19 06:31:30;;;;;;;;;35.25;31.75;;;;;8.36;49.58;102581.28;5054152;28;45474;-79
2022/03/19 06:33:55;;;;;;;;;35.50;30.00;;;;;8.79;48.95;102584.81;5054869;28;45383;-79
2022/03/19 06:39:25;;;;;;;;;35.25;32.00;;;;;9.82;46.73;102584.78;4986711;28;45535;-79
2022/03/19 06:41:51;;;;;;;;;32.00;25.50;;;;;10.03;45.91;102566.59;4974051;28;45563;-80
2022/03/19 06:44:16;;;;;;;;;34.75;34.25;;;;;10.39;45.41;102575.94;4973686;28;45647;-81
2022/03/19 06:46:42;;;;;;;;;43.25;34.50;;;;;10.73;44.65;102568.38;4988044;28;45447;-80
2022/03/19 06:49:07;;;;;;;;;33.75;28.75;;;;;10.78;44.26;102569.34;4994160;28;45512;-80
2022/03/19 06:51:32;;;;;;;;;38.50;34.00;;;;;11.11;43.79;102567.88;4991912;28;45594;-79
2022/03/19 06:53:58;;;;;;;;;48.75;37.50;;;;;11.14;43.69;102567.91;5010377;28;45562;-79
2022/03/19 06:56:23;;;;;;;;;37.25;31.25;;;;;11.49;42.46;102585.88;4989811;28;45614;-79
2022/03/19 06:58:49;;;;;;;;;34.75;31.50;;;;;11.80;42.55;102567.56;4972064;28;45611;-81
2022/03/19 07:01:17;;;;;;;;;29.25;27.75;;;;;12.23;43.45;102570.47;4974239;28;45597;-77
2022/03/19 07:03:44;;;;;;;;;38.50;32.50;;;;;12.57;40.75;102575.94;4972858;28;45413;-82
2022/03/19 07:06:11;;;;;;;;;53.75;40.25;;;;;12.71;40.56;102569.78;4988886;28;47352;-81
2022/03/19 07:08:37;;;;;;;;;41.75;35.75;;;;;13.05;40.32;102561.88;4989604;28;45484;-83
2022/03/19 07:11:03;;;;;;;;;40.00;33.75;;;;;13.14;39.85;102577.81;5009610;28;45608;-82
2022/03/19 07:13:28;;;;;;;;;48.75;40.00;;;;;13.32;39.52;102566.31;5031974;28;45582;-83
2022/03/19 07:15:53;;;;;;;;;46.50;37.00;;;;;13.15;39.49;102563.66;5016871;28;48085;-81
2022/03/19 07:18:19;;;;;;;;;44.00;37.25;;;;;13.18;39.43;102563.66;5043925;28;45480;-82
2022/03/19 07:20:44;;;;;;;;;39.50;37.00;;;;;13.62;39.35;102564.53;5016287;28;45375;-82
2022/03/19 07:23:10;;;;;;;;;15.00;11.50;;;;;13.86;38.38;102558.31;5014888;28;45496;-85
2022/03/19 07:25:37;;;;;;;;;46.00;38.75;;;;;13.81;38.71;102550.34;5018689;28;46326;-81
2022/03/19 07:28:08;;;;;;;;;50.00;39.75;;;;;13.72;38.63;102560.13;5018462;28;45495;-81
2022/03/19 07:30:33;;;;;;;;;47.00;40.00;;;;;14.21;38.03;102554.66;5031196;28;45479;-80
2022/03/19 07:33:00;;;;;;;;;49.75;39.25;;;;;14.46;37.59;102559.88;5047595;28;45463;-80
2022/03/19 07:35:28;;;;;;;;;51.50;41.00;;;;;14.45;37.69;102558.97;5032763;28;45504;-74
2022/03/19 07:37:57;;;;;;;;;46.25;38.75;;;;;14.55;37.45;102559.84;5032384;28;45571;-76
2022/03/19 07:43:09;;;;;;;;;47.75;37.25;;;;;14.80;37.63;102546.41;5045480;28;45393;-75
2022/03/19 07:45:35;;;;;;;;;49.50;40.50;;;;;15.56;36.24;102554.69;5047751;28;45967;-75
2022/03/19 07:48:02;;;;;;;;;53.50;39.75;;;;;16.13;35.32;102548.78;5032716;28;45428;-76
2022/03/19 07:50:27;;;;;;;;;47.75;41.50;;;;;15.86;35.56;102552.63;5033437;28;45346;-77
2022/03/19 07:52:52;;;;;;;;;45.75;37.75;;;;;16.36;35.04;102545.81;5035535;28;45385;-74
2022/03/19 07:55:19;;;;;;;;;51.25;38.25;;;;;16.34;34.91;102553.84;5035467;28;45316;-78
2022/03/19 07:57:44;;;;;;;;;43.00;38.75;;;;;16.82;34.45;102555.88;5038074;28;45574;-79
2022/03/19 08:00:12;;;;;;;;;46.25;39.75;;;;;17.03;33.80;102548.44;5035788;28;45348;-78
2022/03/19 08:02:41;;;;;;;;;54.75;42.50;;;;;17.32;33.24;102544.41;5034310;28;45486;-80
2022/03/19 08:05:07;;;;;;;;;57.75;44.50;;;;;17.33;32.96;102541.69;5034372;28;46249;-80
2022/03/19 08:07:34;;;;;;;;;49.50;37.75;;;;;16.75;33.74;102569.31;5035489;28;45498;-77
2022/03/19 08:09:59;;;;;;;;;50.25;41.75;;;;;16.19;35.00;102555.84;5039179;28;45472;-81
2022/03/19 08:12:25;;;;;;;;;60.00;43.25;;;;;16.22;35.71;102539.78;5033155;28;45503;-77
2022/03/19 08:14:51;;;;;;;;;59.25;45.00;;;;;16.77;34.81;102548.81;5017105;28;46943;-77
2022/03/19 08:17:18;;;;;;;;;58.25;43.75;;;;;16.55;34.55;102537.56;5035730;28;45339;-79
2022/03/19 08:19:44;;;;;;;;;57.50;41.50;;;;;16.55;34.74;102535.78;5046320;28;45545;-83
2022/03/19 08:22:10;;;;;;;;;52.25;43.00;;;;;16.85;34.69;102550.47;5040261;28;45497;-77
2022/03/19 08:24:36;;;;;;;;;51.50;42.00;;;;;17.34;33.74;102521.19;5036357;28;46295;-80
2022/03/19 08:27:05;;;;;;;;;58.25;41.00;;;;;17.67;33.58;102534.88;5020842;28;45659;-83
2022/03/19 08:29:30;;;;;;;;;53.25;42.25;;;;;18.00;32.60;102533.34;5037581;28;45397;-80
2022/03/19 08:31:56;;;;;;;;;55.00;44.50;;;;;17.70;32.81;102513.41;5036802;28;45479;-81
2022/03/19 08:34:25;;;;;;;;;60.25;47.50;;;;;17.88;32.36;102531.78;5037199;28;46069;-74
2022/03/19 08:36:52;;;;;;;;;52.00;42.75;;;;;18.04;32.94;102512.78;5036852;28;45578;-76
2022/03/19 08:42:02;;;;;;;;;55.00;42.25;;;;;17.36;33.10;102519.41;5034481;28;45514;-80
2022/03/19 08:44:27;;;;;;;;;56.25;44.75;;;;;17.69;33.23;102522.38;5017807;28;48138;-81
2022/03/19 08:46:53;;;;;;;;;54.25;42.50;;;;;18.36;32.74;102522.81;5034789;28;45405;-76
2022/03/19 08:49:19;;;;;;;;;53.25;45.00;;;;;18.76;31.73;102518.31;5039602;28;45313;-76
2022/03/19 08:51:45;;;;;;;;;59.50;45.25;;;;;18.95;31.09;102522.34;5037231;28;45396;-81
2022/03/19 08:54:14;;;;;;;;;62.75;46.50;;;;;18.32;31.84;102521.09;5041580;28;45341;-81
2022/03/19 08:56:40;;;;;;;;;57.00;46.25;;;;;17.94;32.56;102507.59;5021653;28;45526;-80
2022/03/19 08:59:06;;;;;;;;;62.50;49.00;;;;;17.84;32.83;102527.41;5037702;28;45396;-82
2022/03/19 09:01:33;;;;;;;;;58.00;45.00;;;;;17.79;32.91;102523.06;5035720;28;45415;-81
2022/03/19 09:03:59;;;;;;;;;60.00;47.25;;;;;17.64;32.57;102524.22;5034952;28;46210;-81
2022/03/19 09:06:25;;;;;;;;;54.25;42.75;;;;;17.48;33.40;102512.97;5034981;28;45488;-76
2022/03/19 09:08:50;;;;;;;;;56.25;41.25;;;;;17.43;33.22;102514.81;5033741;28;45523;-77
2022/03/19 09:11:19;;;;;;;;;62.75;48.50;;;;;17.63;33.36;102517.09;5039263;28;45717;-76
2022/03/19 09:13:47;;;;;;;;;62.25;48.25;;;;;18.02;32.56;102515.50;5032984;28;46178;-76
2022/03/19 09:16:13;;;;;;;;;53.50;43.75;;;;;18.20;31.87;102530.25;5033897;28;45467;-76
2022/03/19 09:18:39;;;;;;;;;52.75;40.25;;;;;18.08;32.00;102525.16;5032219;28;45429;-76
2022/03/19 09:21:04;;;;;;;;;60.25;43.00;;;;;17.83;31.96;102525.63;5033953;28;45418;-76
2022/03/19 09:23:29;;;;;;;;;56.75;45.00;;;;;17.62;32.41;102515.38;5033241;28;45478;-77
2022/03/19 09:25:55;;;;;;;;;63.50;49.00;;;;;17.84;32.06;102503.34;5038417;28;45600;-75
2022/03/19 09:28:21;;;;;;;;;61.00;49.25;;;;;17.89;31.91;102492.59;5017476;28;45328;-80
2022/03/19 09:30:46;;;;;;;;;57.00;45.25;;;;;18.26;31.88;102491.78;5035985;28;45416;-81
2022/03/19 09:33:11;;;;;;;;;56.25;46.25;;;;;18.77;30.81;102520.09;5035173;28;46109;-81
2022/03/19 09:35:37;;;;;;;;;61.75;47.75;;;;;18.10;31.11;102512.66;5035383;28;45321;-82
2022/03/19 09:38:03;;;;;;;;;54.25;42.75;;;;;18.20;31.67;102498.16;5034777;28;45396;-80
2022/03/19 09:40:29;;;;;;;;;47.00;39.25;;;;;18.25;31.25;102508.75;5034054;28;45638;-81
2022/03/19 09:42:57;;;;;;;;;57.00;45.75;;;;;18.38;31.12;102522.75;5015343;28;48077;-81
2022/03/19 09:45:23;;;;;;;;;54.75;45.00;;;;;18.44;31.63;102494.06;5037539;28;45489;-81
2022/03/19 09:47:51;;;;;;;;;50.25;41.00;;;;;19.15;30.53;102486.16;5034523;28;45438;-81
2022/03/19 09:50:17;;;;;;;;;61.75;46.75;;;;;19.29;29.78;102508.09;5034836;28;45483;-81
2022/03/19 09:52:44;;;;;;;;;57.00;44.50;;;;;19.12;29.92;102495.13;5034239;28;45505;-81
2022/03/19 09:55:17;;;;;;;;;63.25;47.25;;;;;18.93;30.13;102500.09;5034076;28;45447;-82
2022/03/19 09:57:43;;;;;;;;;57.50;45.25;;;;;18.87;30.03;102492.19;5035603;28;45357;-80
2022/03/19 10:00:11;;;;;;;;;50.50;40.50;;;;;19.03;29.63;102492.69;5017846;28;45643;-81
2022/03/19 10:03:10;;;;;;;;;52.00;44.50;;;;;19.67;29.69;102483.84;5017039;28;46205;-81
2022/03/19 10:08:37;;;;;;;;;54.50;40.75;;;;;19.65;29.11;102486.56;4952823;28;45527;-83
2022/03/19 10:11:06;;;;;;;;;53.75;43.25;;;;;19.49;29.25;102478.06;4956179;28;45651;-81
2022/03/19 10:13:33;;;;;;;;;59.00;45.25;;;;;19.44;28.80;102479.13;4945058;28;46419;-82
2022/03/19 10:15:58;;;;;;;;;57.50;44.75;;;;;19.29;29.15;102467.88;4952608;28;45488;-81
2022/03/19 10:18:28;;;;;;;;;52.75;45.00;;;;;19.29;29.29;102475.94;4953352;28;45421;-82
2022/03/19 10:20:54;;;;;;;;;50.50;43.00;;;;;19.05;29.38;102476.56;4951599;28;45492;-82
2022/03/19 10:23:39;;;;;;;;;53.00;43.50;;;;;18.97;29.19;102458.88;4958628;28;46113;-79
2022/03/19 10:26:05;;;;;;;;;54.50;43.25;;;;;18.63;29.75;102485.63;4960347;28;45379;-81
2022/03/19 10:28:35;;;;;;;;;61.00;46.00;;;;;18.62;29.71;102463.28;4959022;28;45540;-82
2022/03/19 10:31:01;;;;;;;;;49.25;40.75;;;;;18.70;29.23;102484.53;4955985;28;45638;-81
2022/03/19 10:33:30;;;;;;;;;53.75;44.50;;;;;18.41;29.47;102445.06;4956855;28;45515;-82
2022/03/19 10:36:10;;;;;;;;;54.25;43.25;;;;;18.80;29.49;102453.06;4961815;28;45513;-75
2022/03/19 10:38:44;;;;;;;;;54.75;42.00;;;;;18.51;29.91;102451.97;4953369;28;45530;-75
2022/03/19 10:41:09;;;;;;;;;52.50;40.75;;;;;18.37;30.10;102451.41;4986569;28;45652;-76
2022/03/19 10:43:35;;;;;;;;;56.75;45.75;;;;;18.56;29.58;102452.72;5033825;28;45958;-76
2022/03/19 10:46:03;;;;;;;;;52.25;42.75;;;;;18.26;29.68;102457.88;5036214;28;45513;-85
2022/03/19 10:48:31;;;;;;;;;52.00;40.75;;;;;18.50;29.58;102435.94;5018258;28;45494;-78
2022/03/19 10:50:57;;;;;;;;;54.25;42.00;;;;;18.45;29.61;102438.72;5032302;28;45590;-78
2022/03/19 10:53:24;;;;;;;;;54.25;42.00;;;;;18.26;29.49;102436.47;5031230;28;46275;-79
2022/03/19 10:55:50;;;;;;;;;56.50;46.50;;;;;18.03;29.63;102457.53;5032488;28;45320;-79
2022/03/19 10:58:16;;;;;;;;;49.75;41.50;;;;;18.11;29.74;102450.19;5032910;28;45502;-78
2022/03/19 11:00:43;;;;;;;;;58.25;45.00;;;;;18.21;29.42;102442.84;5033370;28;45481;-77
2022/03/19 11:03:17;;;;;;;;;55.50;42.25;;;;;18.48;28.90;102460.06;5032416;28;45414;-79
2022/03/19 11:05:45;;;;;;;;;54.25;40.00;;;;;18.33;29.31;102431.00;5032008;28;45716;-76
2022/03/19 11:08:12;;;;;;;;;53.25;41.00;;;;;18.57;29.28;102427.72;5014491;28;45664;-76
2022/03/19 11:10:38;;;;;;;;;49.25;41.50;;;;;18.60;29.15;102426.78;5028993;28;45695;-77
2022/03/19 11:13:07;;;;;;;;;56.00;43.00;;;;;18.68;28.47;102423.91;5029143;28;45514;-76
2022/03/19 11:15:34;;;;;;;;;54.25;43.25;;;;;18.38;28.85;102424.59;5031548;28;45418;-77
2022/03/19 11:18:03;;;;;;;;;56.00;42.00;;;;;18.33;28.89;102433.69;5033387;28;45518;-77
2022/03/19 11:20:30;;;;;;;;;51.50;41.25;;;;;18.25;28.92;102420.44;5039033;28;45676;-77
2022/03/19 11:22:57;;;;;;;;;48.50;41.00;;;;;17.92;29.15;102418.50;5031399;28;46416;-76
2022/03/19 11:25:26;;;;;;;;;53.00;40.75;;;;;17.94;29.45;102464.81;5034654;28;45431;-83
2022/03/19 11:27:55;;;;;;;;;51.50;40.25;;;;;17.83;29.59;102413.31;5036456;28;45490;-77
2022/03/19 11:30:30;;;;;;;;;53.75;44.00;;;;;17.70;29.88;102431.44;5035983;28;45440;-77